Time;durP1;ratioP1;P1;durP2;ratioP2;P2;SDS_P1;SDS_P2;PMS_P1;PMS_P2;Temp;Humidity;BMP_temperature;BMP_pressure;BME280_temperature;BME280_humidity;BME280_pressure;Samples;Min_cycle;Max_cycle;Signal;HPM_P1;HPM_P2
2023/11/07 00:01:05;;;;;;;6.28;2.10;;;;;;;8.82;100.00;99920.38;5030390;28;20033;-77
2023/11/07 00:03:32;;;;;;;4.65;1.45;;;;;;;8.75;100.00;99923.06;5040699;28;20033;-79
2023/11/07 00:05:59;;;;;;;3.58;1.75;;;;;;;8.82;100.00;99923.81;5038272;28;20044;-78
2023/11/07 00:08:26;;;;;;;5.03;1.73;;;;;;;8.82;100.00;99929.03;5037248;28;20092;-79
2023/11/07 00:10:52;;;;;;;3.53;1.58;;;;;;;8.82;100.00;99926.44;5032580;28;20049;-76
2023/11/07 00:13:19;;;;;;;6.70;1.55;;;;;;;8.80;100.00;99928.22;5041930;28;20040;-79
2023/11/07 00:15:45;;;;;;;2.72;1.13;;;;;;;8.83;100.00;99932.53;5017627;28;20033;-79
2023/11/07 00:18:12;;;;;;;3.22;1.15;;;;;;;8.82;100.00;99938.63;5035455;28;20040;-80
2023/11/07 00:20:38;;;;;;;4.35;1.27;;;;;;;8.81;100.00;99947.34;5038399;28;20057;-80
2023/11/07 00:23:06;;;;;;;4.03;1.40;;;;;;;8.82;100.00;99946.47;5035675;28;20068;-77
2023/11/07 00:25:46;;;;;;;1.70;1.45;;;;;;;8.80;100.00;99943.88;5025643;28;20498;-84
2023/11/07 00:28:12;;;;;;;4.03;1.27;;;;;;;8.83;100.00;99949.03;5034778;28;20056;-79
2023/11/07 00:30:39;;;;;;;9.98;3.50;;;;;;;8.81;100.00;99947.34;5039025;28;20048;-77
2023/11/07 00:33:06;;;;;;;1.20;1.10;;;;;;;8.82;100.00;99943.84;5040009;28;20116;-77
2023/11/07 00:35:33;;;;;;;5.88;1.58;;;;;;;8.89;100.00;99943.75;5038845;28;20440;-78
2023/11/07 00:37:59;;;;;;;6.57;1.98;;;;;;;8.93;100.00;99947.19;5026787;28;20053;-77
2023/11/07 00:40:26;;;;;;;3.80;1.70;;;;;;;8.93;100.00;99949.81;5026050;28;20041;-79
2023/11/07 00:42:53;;;;;;;6.10;1.60;;;;;;;8.96;100.00;99946.25;5038575;28;20038;-78
2023/11/07 00:45:20;;;;;;;1.80;1.52;;;;;;;8.98;100.00;99947.09;5040055;28;20107;-77
2023/11/07 00:47:48;;;;;;;2.20;1.05;;;;;;;8.97;100.00;99958.44;5025969;28;20045;-79
2023/11/07 00:50:17;;;;;;;2.38;1.33;;;;;;;8.97;100.00;99958.44;5038766;28;20443;-79
2023/11/07 00:52:44;;;;;;;2.75;1.58;;;;;;;8.96;100.00;99957.56;5040352;28;20057;-85
2023/11/07 00:55:14;;;;;;;3.33;1.63;;;;;;;9.02;100.00;99970.56;5034926;28;20559;-82
2023/11/07 00:57:42;;;;;;;13.05;2.78;;;;;;;9.00;100.00;99964.47;5038476;28;20132;-79
2023/11/07 01:00:10;;;;;;;2.72;1.10;;;;;;;8.96;100.00;99967.13;5027451;28;20037;-78
2023/11/07 01:02:37;;;;;;;4.00;1.30;;;;;;;8.98;100.00;99968.00;5043121;28;20269;-78
2023/11/07 01:05:04;;;;;;;5.13;1.38;;;;;;;9.04;100.00;99970.53;5033716;28;20047;-81
2023/11/07 01:07:31;;;;;;;4.78;1.77;;;;;;;9.04;100.00;99975.75;5023082;28;20480;-79
2023/11/07 01:09:58;;;;;;;1.35;1.10;;;;;;;9.00;100.00;99980.16;5036091;28;20630;-77
2023/11/07 01:12:25;;;;;;;1.80;1.02;;;;;;;8.99;100.00;99988.84;5038855;28;20099;-78
2023/11/07 01:14:51;;;;;;;6.22;1.35;;;;;;;8.98;100.00;99981.03;5040056;28;20508;-77
2023/11/07 01:17:18;;;;;;;6.57;1.40;;;;;;;9.03;100.00;99984.47;5040463;28;20568;-77
2023/11/07 01:19:45;;;;;;;4.47;1.50;;;;;;;9.00;100.00;99977.53;5053803;28;20288;-85
2023/11/07 01:22:12;;;;;;;1.35;1.25;;;;;;;9.01;100.00;99987.09;5023126;28;20045;-77
2023/11/07 01:24:38;;;;;;;1.25;1.00;;;;;;;9.01;100.00;99989.72;5037512;28;20055;-82
2023/11/07 01:27:05;;;;;;;6.78;1.95;;;;;;;9.01;100.00;99992.31;5038024;28;20517;-77
2023/11/07 01:29:32;;;;;;;8.32;2.70;;;;;;;9.04;100.00;99994.88;5021444;28;20037;-81
2023/11/07 01:31:58;;;;;;;3.28;0.77;;;;;;;9.05;100.00;100006.19;5037166;28;20396;-81
2023/11/07 01:34:25;;;;;;;3.55;1.48;;;;;;;9.06;100.00;100002.69;5040666;28;20037;-77
2023/11/07 01:36:51;;;;;;;2.05;1.13;;;;;;;9.07;100.00;100001.81;5038014;28;20191;-78
2023/11/07 01:39:18;;;;;;;1.38;0.93;;;;;;;9.10;100.00;100000.03;5034457;28;20244;-83
2023/11/07 01:41:45;;;;;;;5.68;1.00;;;;;;;9.07;100.00;100007.03;5029696;28;20072;-83
2023/11/07 01:44:12;;;;;;;2.17;1.40;;;;;;;9.06;100.00;100005.28;5034050;28;20045;-80
2023/11/07 01:46:39;;;;;;;4.82;1.83;;;;;;;9.07;100.00;100005.31;5031817;28;20488;-80
2023/11/07 01:49:08;;;;;;;9.02;2.35;;;;;;;9.12;100.00;100005.22;5033876;28;20057;-79
2023/11/07 01:51:36;;;;;;;1.45;1.10;;;;;;;9.11;100.00;100011.31;5039194;28;20463;-78
2023/11/07 01:54:04;;;;;;;3.13;1.40;;;;;;;9.16;100.00;100013.88;5034886;28;20037;-77
2023/11/07 01:56:33;;;;;;;3.35;1.33;;;;;;;9.15;100.00;100002.59;5023081;28;20444;-77
2023/11/07 01:59:03;;;;;;;4.85;1.60;;;;;;;9.14;100.00;100007.81;5020156;28;20092;-77
2023/11/07 02:01:33;;;;;;;4.20;1.17;;;;;;;9.14;100.00;100000.84;5018431;28;20045;-81
2023/11/07 02:03:59;;;;;;;9.07;1.88;;;;;;;9.13;100.00;100001.72;5037384;28;20040;-78
2023/11/07 02:06:26;;;;;;;7.75;1.30;;;;;;;9.14;100.00;99999.97;5038073;28;20649;-77
2023/11/07 02:08:53;;;;;;;2.72;1.40;;;;;;;9.16;100.00;99996.47;5020661;28;20493;-78
2023/11/07 02:11:19;;;;;;;2.40;1.00;;;;;;;9.18;100.00;100002.53;5033653;28;20064;-77
2023/11/07 02:13:50;;;;;;;1.98;0.95;;;;;;;9.26;100.00;100010.28;5034027;28;20037;-76
2023/11/07 02:16:17;;;;;;;5.22;1.73;;;;;;;9.30;100.00;100000.66;5056501;28;20064;-80
2023/11/07 02:18:44;;;;;;;18.05;1.63;;;;;;;9.30;100.00;99998.88;5040305;28;20093;-81
2023/11/07 02:21:13;;;;;;;8.18;1.30;;;;;;;9.35;100.00;100007.53;5034430;28;20150;-80
2023/11/07 02:23:42;;;;;;;4.28;1.52;;;;;;;9.34;100.00;99994.50;5037826;28;20111;-76
2023/11/07 02:26:09;;;;;;;5.85;1.77;;;;;;;9.30;100.00;99985.81;5054805;28;20061;-80
2023/11/07 02:28:36;;;;;;;4.45;1.02;;;;;;;9.27;100.00;99997.19;5042768;28;20041;-80
2023/11/07 02:31:03;;;;;;;4.65;1.45;;;;;;;9.25;100.00;100001.53;5037662;28;20496;-83
2023/11/07 02:33:30;;;;;;;7.03;1.90;;;;;;;9.21;100.00;99997.25;5038129;28;20056;-78
2023/11/07 02:35:57;;;;;;;4.82;1.50;;;;;;;9.22;100.00;99998.13;5038634;28;20049;-79
2023/11/07 02:38:23;;;;;;;3.47;1.67;;;;;;;9.21;100.00;100005.09;5041542;28;20378;-82
2023/11/07 02:40:50;;;;;;;2.53;1.05;;;;;;;9.23;100.00;100000.72;5034085;28;20056;-77
2023/11/07 02:43:19;;;;;;;2.80;1.50;;;;;;;9.26;100.00;99998.06;5039760;28;20496;-80
2023/11/07 02:45:48;;;;;;;1.98;0.98;;;;;;;9.24;100.00;99993.75;5022751;28;20076;-78
2023/11/07 02:48:17;;;;;;;4.25;1.65;;;;;;;9.23;100.00;100002.44;5037658;28;20060;-78
2023/11/07 02:50:44;;;;;;;1.10;0.85;;;;;;;9.25;100.00;99998.09;5032670;28;20637;-82
2023/11/07 02:53:14;;;;;;;6.28;1.23;;;;;;;9.29;100.00;99994.53;5038581;28;20474;-79
2023/11/07 02:55:43;;;;;;;4.68;1.13;;;;;;;9.31;100.00;100004.97;5037372;28;20041;-77
2023/11/07 02:58:10;;;;;;;2.97;1.20;;;;;;;9.30;100.00;99995.41;5040008;28;20049;-79
2023/11/07 03:00:38;;;;;;;2.47;1.30;;;;;;;9.30;100.00;100008.47;5037363;28;20061;-77
2023/11/07 03:03:04;;;;;;;8.73;1.63;;;;;;;9.30;100.00;99998.88;5039749;28;20056;-76
2023/11/07 03:05:31;;;;;;;3.38;1.20;;;;;;;9.28;100.00;100008.47;5021015;28;20140;-79
2023/11/07 03:07:58;;;;;;;3.88;1.52;;;;;;;9.24;100.00;100004.19;5042901;28;20120;-79
2023/11/07 03:10:25;;;;;;;4.07;1.92;;;;;;;9.21;100.00;100007.69;5040897;28;20041;-78
2023/11/07 03:12:52;;;;;;;4.65;0.90;;;;;;;9.16;100.00;100019.97;5035788;28;20065;-80
2023/11/07 03:15:18;;;;;;;3.45;1.10;;;;;;;9.20;100.00;100013.81;5042465;28;20052;-79
2023/11/07 03:17:45;;;;;;;3.40;1.40;;;;;;;9.21;100.00;100014.69;5038174;28;20671;-77
2023/11/07 03:20:12;;;;;;;6.10;1.08;;;;;;;9.18;100.00;100014.75;5036995;28;20496;-77
2023/11/07 03:22:38;;;;;;;7.22;1.10;;;;;;;9.13;100.00;100016.56;5041486;28;20115;-78
2023/11/07 03:25:06;;;;;;;1.80;0.88;;;;;;;9.17;100.00;100013.00;5036132;28;20039;-77
2023/11/07 03:27:32;;;;;;;2.17;1.15;;;;;;;9.18;100.00;100004.28;5027795;28;20041;-78
2023/11/07 03:29:59;;;;;;;1.95;0.90;;;;;;;9.20;100.00;100003.34;5030327;28;20569;-79
2023/11/07 03:32:25;;;;;;;3.28;1.20;;;;;;;9.16;100.00;100013.88;5041930;28;20613;-77
2023/11/07 03:34:52;;;;;;;2.28;0.93;;;;;;;9.17;100.00;100010.41;5025971;28;20069;-77
2023/11/07 03:37:18;;;;;;;5.20;1.70;;;;;;;9.14;100.00;100015.63;5041845;28;20041;-78
2023/11/07 03:39:45;;;;;;;6.47;1.70;;;;;;;9.10;100.00;100004.41;5034461;28;20045;-76
2023/11/07 03:42:11;;;;;;;4.47;1.88;;;;;;;9.08;100.00;100009.63;5038725;28;20092;-77
2023/11/07 03:44:38;;;;;;;6.45;1.73;;;;;;;9.06;100.00;100018.34;5043462;28;20132;-79
2023/11/07 03:47:05;;;;;;;3.42;0.75;;;;;;;9.06;100.00;100011.41;5041869;28;20056;-79
2023/11/07 03:49:33;;;;;;;1.70;1.33;;;;;;;9.06;100.00;100011.41;5044484;28;20041;-77
2023/11/07 03:52:00;;;;;;;2.70;0.80;;;;;;;9.13;100.00;100011.31;5039706;28;20053;-80
2023/11/07 03:54:27;;;;;;;3.78;0.82;;;;;;;9.12;100.00;100017.44;5025610;28;20646;-77
2023/11/07 03:56:53;;;;;;;3.25;0.98;;;;;;;9.14;100.00;100013.91;5040917;28;20052;-77
2023/11/07 03:59:20;;;;;;;5.45;0.95;;;;;;;9.14;100.00;100019.13;5040238;28;20525;-78
2023/11/07 04:01:47;;;;;;;3.63;0.90;;;;;;;9.16;100.00;100011.28;5025487;28;20173;-80
2023/11/07 04:04:13;;;;;;;0.70;0.70;;;;;;;9.17;100.00;100013.00;5043776;28;20159;-78
2023/11/07 04:06:40;;;;;;;1.30;0.60;;;;;;;9.18;100.00;100014.75;5042777;28;20052;-77
2023/11/07 04:09:07;;;;;;;3.05;0.82;;;;;;;9.18;100.00;100014.75;5044301;28;20041;-77
2023/11/07 04:11:34;;;;;;;1.10;0.70;;;;;;;9.20;100.00;100013.81;5036633;28;20111;-77
2023/11/07 04:14:01;;;;;;;3.00;0.77;;;;;;;9.14;100.00;100013.91;5036034;28;20048;-78
2023/11/07 04:16:28;;;;;;;2.92;1.00;;;;;;;9.06;100.00;100024.44;5042756;28;20037;-81
2023/11/07 04:18:54;;;;;;;2.67;1.15;;;;;;;9.03;100.00;100019.25;5039957;28;20045;-81
2023/11/07 04:21:21;;;;;;;5.00;1.33;;;;;;;8.90;100.00;100025.53;5032366;28;20030;-77
2023/11/07 04:23:48;;;;;;;6.15;3.80;;;;;;;8.89;100.00;100029.88;5042127;28;20091;-80
2023/11/07 04:26:15;;;;;;;7.65;5.18;;;;;;;8.82;100.00;100014.31;5024337;28;20053;-83
2023/11/07 04:28:41;;;;;;;12.75;7.10;;;;;;;8.79;100.00;100028.25;5045782;28;20048;-78
2023/11/07 04:31:08;;;;;;;14.98;9.30;;;;;;;8.74;100.00;100019.63;5040778;28;20106;-79
2023/11/07 04:33:38;;;;;;;20.92;11.95;;;;;;;8.73;100.00;100023.09;5042904;28;20123;-83
2023/11/07 04:36:05;;;;;;;22.35;11.50;;;;;;;8.77;100.00;100030.91;5050414;28;20178;-78
2023/11/07 04:38:38;;;;;;;22.25;10.48;;;;;;;8.77;100.00;100028.28;5049478;28;20079;-76
2023/11/07 04:41:08;;;;;;;14.48;10.07;;;;;;;8.85;100.00;100030.81;5047814;28;20053;-79
2023/11/07 04:43:37;;;;;;;13.13;8.45;;;;;;;8.86;100.00;100035.13;5052953;28;20052;-80
2023/11/07 04:46:04;;;;;;;12.43;8.07;;;;;;;8.85;100.00;100033.41;5044366;28;20067;-77
2023/11/07 04:48:32;;;;;;;11.68;9.35;;;;;;;8.85;100.00;100028.19;5043477;28;20107;-78
2023/11/07 04:51:00;;;;;;;11.63;8.30;;;;;;;8.81;100.00;100043.91;5045323;28;20124;-81
2023/11/07 04:53:28;;;;;;;11.75;8.48;;;;;;;8.82;100.00;100038.66;5046422;28;20122;-80
2023/11/07 04:55:55;;;;;;;8.27;6.00;;;;;;;8.82;100.00;100037.81;5049607;28;20041;-83
2023/11/07 04:58:25;;;;;;;9.55;6.13;;;;;;;8.84;100.00;100039.50;5038932;28;20492;-76
2023/11/07 05:00:54;;;;;;;9.88;7.22;;;;;;;8.90;100.00;100036.84;5039047;28;20045;-78
2023/11/07 05:03:21;;;;;;;10.10;6.88;;;;;;;9.02;100.00;100041.03;5050623;28;20053;-83
2023/11/07 05:05:48;;;;;;;11.50;7.60;;;;;;;9.04;100.00;100049.69;5050645;28;20075;-82
2023/11/07 05:08:17;;;;;;;8.63;6.38;;;;;;;9.13;100.00;100040.91;5034077;28;20140;-82
2023/11/07 05:10:44;;;;;;;6.55;5.07;;;;;;;9.20;99.46;100042.53;5049750;28;20124;-82
2023/11/07 05:13:17;;;;;;;6.63;5.75;;;;;;;9.25;98.63;100037.25;5040628;28;20518;-80
2023/11/07 05:15:47;;;;;;;6.05;4.72;;;;;;;9.32;98.33;100046.75;5038585;28;20722;-77
2023/11/07 05:18:14;;;;;;;10.18;4.97;;;;;;;9.32;98.30;100045.88;5036692;28;20045;-78
2023/11/07 05:20:43;;;;;;;5.80;4.55;;;;;;;9.32;97.89;100043.25;5042160;28;20033;-76
2023/11/07 05:23:09;;;;;;;5.70;4.68;;;;;;;9.27;98.30;100046.81;5041806;28;20044;-78
2023/11/07 05:25:36;;;;;;;6.93;4.97;;;;;;;9.14;99.01;100042.63;5038126;28;20144;-78
2023/11/07 05:28:06;;;;;;;6.75;4.68;;;;;;;9.09;99.14;100042.69;5037214;28;20043;-77
2023/11/07 05:30:35;;;;;;;2.88;2.53;;;;;;;9.08;99.41;100043.56;5038518;28;20033;-79
2023/11/07 05:33:03;;;;;;;3.08;2.35;;;;;;;9.06;99.36;100047.06;5039843;28;20087;-77
2023/11/07 05:35:31;;;;;;;2.80;1.85;;;;;;;8.98;99.98;100049.78;5038933;28;20049;-81
2023/11/07 05:37:58;;;;;;;2.28;1.17;;;;;;;8.92;100.00;100045.50;5036422;28;20124;-78
2023/11/07 05:40:24;;;;;;;3.92;1.63;;;;;;;8.94;100.00;100053.31;5041872;28;20488;-80
2023/11/07 05:42:54;;;;;;;1.52;0.75;;;;;;;9.00;99.97;100053.25;5032166;28;20041;-77
2023/11/07 05:45:21;;;;;;;1.00;0.40;;;;;;;9.09;99.69;100060.97;5038005;28;20053;-78
2023/11/07 05:47:50;;;;;;;2.38;0.90;;;;;;;9.13;99.58;100061.78;5041944;28;20049;-78
2023/11/07 05:50:25;;;;;;;3.85;1.00;;;;;;;9.17;98.95;100068.69;5021021;28;20489;-76
2023/11/07 05:52:54;;;;;;;1.77;0.90;;;;;;;9.22;99.27;100072.13;5042552;28;20420;-78
2023/11/07 05:55:21;;;;;;;1.27;0.65;;;;;;;9.29;98.83;100074.66;5041600;28;20041;-81
2023/11/07 05:57:47;;;;;;;1.25;0.93;;;;;;;9.30;98.83;100072.03;5041621;28;20123;-79
2023/11/07 06:00:15;;;;;;;3.28;1.00;;;;;;;9.34;98.19;100075.47;5041153;28;20041;-77
2023/11/07 06:02:42;;;;;;;3.40;0.93;;;;;;;9.33;98.62;100076.34;5034566;28;20388;-79
2023/11/07 06:05:09;;;;;;;1.27;0.60;;;;;;;9.32;98.94;100072.88;5038729;28;20045;-80
2023/11/07 06:07:36;;;;;;;2.38;1.42;;;;;;;9.32;98.78;100077.22;5040886;28;20141;-78
2023/11/07 06:10:03;;;;;;;1.70;0.57;;;;;;;9.31;98.77;100078.97;5031997;28;20094;-78
2023/11/07 06:12:31;;;;;;;2.10;0.82;;;;;;;9.34;98.53;100075.47;5039198;28;20052;-79
2023/11/07 06:14:57;;;;;;;1.80;0.68;;;;;;;9.34;98.75;100078.94;5020057;28;20056;-81
2023/11/07 06:17:24;;;;;;;1.90;0.65;;;;;;;9.31;98.28;100071.13;5032559;28;20057;-79
2023/11/07 06:19:50;;;;;;;2.03;0.35;;;;;;;9.33;98.18;100079.81;5022867;28;20037;-84
2023/11/07 06:22:17;;;;;;;2.83;0.70;;;;;;;9.26;98.30;100073.81;5036542;28;21406;-79
2023/11/07 06:24:44;;;;;;;1.98;0.70;;;;;;;9.20;98.67;100086.94;5033960;28;20481;-78
2023/11/07 06:27:11;;;;;;;3.80;0.52;;;;;;;9.16;99.20;100089.63;5022256;28;20151;-80
2023/11/07 06:29:42;;;;;;;1.08;0.90;;;;;;;9.15;98.62;100088.75;5033596;28;20098;-78
2023/11/07 06:32:10;;;;;;;3.35;0.85;;;;;;;9.18;98.90;100082.63;5033220;28;20363;-82
2023/11/07 06:34:36;;;;;;;3.50;1.17;;;;;;;9.22;98.56;100084.31;5036216;28;20059;-78
2023/11/07 06:37:03;;;;;;;0.85;0.47;;;;;;;9.23;98.28;100099.09;5018941;28;20045;-83
2023/11/07 06:39:31;;;;;;;3.47;1.02;;;;;;;9.25;98.09;100090.34;5042482;28;20107;-80
2023/11/07 06:41:58;;;;;;;0.93;0.30;;;;;;;9.21;97.73;100096.50;5037227;28;20037;-84
2023/11/07 06:44:25;;;;;;;3.53;0.70;;;;;;;9.24;98.32;100106.03;5044913;28;20041;-78
2023/11/07 06:46:52;;;;;;;2.83;0.43;;;;;;;9.23;98.03;100101.69;5040970;28;20136;-77
2023/11/07 06:49:19;;;;;;;3.05;0.47;;;;;;;9.24;98.14;100101.69;5039783;28;20509;-78
2023/11/07 06:51:45;;;;;;;2.97;0.70;;;;;;;9.24;98.03;100106.94;5029392;28;20136;-83
2023/11/07 06:54:12;;;;;;;2.78;0.30;;;;;;;9.26;98.31;100112.13;5046602;28;20045;-78
2023/11/07 06:56:39;;;;;;;6.22;1.20;;;;;;;9.29;97.88;100119.91;5043024;28;20041;-77
2023/11/07 06:59:06;;;;;;;2.83;1.30;;;;;;;9.33;97.93;100121.59;5044706;28;20120;-79
2023/11/07 07:01:33;;;;;;;1.30;0.50;;;;;;;9.33;97.88;100118.97;5035792;28;20144;-78
2023/11/07 07:04:03;;;;;;;3.50;0.93;;;;;;;9.39;97.55;100124.13;5040206;28;20107;-79
2023/11/07 07:06:31;;;;;;;1.02;0.28;;;;;;;9.39;97.38;100126.75;5026688;28;20041;-81
2023/11/07 07:08:58;;;;;;;3.45;0.60;;;;;;;9.35;97.44;100130.28;5021939;28;20706;-81
2023/11/07 07:11:24;;;;;;;0.60;0.40;;;;;;;9.36;97.00;100125.91;5043569;28;20049;-78
2023/11/07 07:13:51;;;;;;;2.95;0.40;;;;;;;9.37;97.62;100125.94;5044379;28;20049;-81
2023/11/07 07:16:19;;;;;;;1.10;0.40;;;;;;;9.40;96.85;100130.25;5022617;28;20053;-82
2023/11/07 07:18:46;;;;;;;1.77;0.70;;;;;;;9.42;97.28;100137.16;5023674;28;20056;-79
2023/11/07 07:21:15;;;;;;;2.65;0.50;;;;;;;9.47;96.79;100137.09;5038756;28;20489;-79
2023/11/07 07:23:46;;;;;;;2.33;0.60;;;;;;;9.53;96.19;100139.66;5041096;28;20059;-81
2023/11/07 07:26:16;;;;;;;1.45;0.50;;;;;;;9.62;95.78;100133.44;5038484;28;20127;-78
2023/11/07 07:28:42;;;;;;;7.38;0.75;;;;;;;9.72;95.25;100136.78;5022880;28;20426;-82
2023/11/07 07:31:16;;;;;;;2.00;0.43;;;;;;;9.81;94.60;100141.03;5035069;28;20099;-81
2023/11/07 07:33:43;;;;;;;;;;;;;;;9.90;93.58;100143.50;5035165;28;20116;-78
2023/11/07 07:36:11;;;;;;;2.20;0.90;;;;;;;10.04;92.64;100143.31;5035673;28;19925;-81
2023/11/07 07:38:40;;;;;;;1.15;0.47;;;;;;;10.14;92.16;100144.03;5036381;28;20041;-83
2023/11/07 07:41:10;;;;;;;3.72;0.90;;;;;;;10.19;92.18;100145.66;5022182;28;20500;-79
2023/11/07 07:43:38;;;;;;;1.85;0.70;;;;;;;10.20;90.88;100147.41;5022660;28;20052;-80
2023/11/07 07:46:07;;;;;;;4.35;0.60;;;;;;;10.23;90.91;100139.53;5039655;28;20095;-79
2023/11/07 07:48:34;;;;;;;2.42;0.70;;;;;;;10.33;90.87;100149.84;5036080;28;20485;-81
2023/11/07 07:51:06;;;;;;;12.85;0.77;;;;;;;10.38;91.23;100143.66;5057115;28;20067;-78
2023/11/07 07:53:35;;;;;;;1.95;0.50;;;;;;;10.46;90.32;100146.16;5027445;28;20047;-77
2023/11/07 07:56:09;;;;;;;0.38;0.38;;;;;;;10.47;90.31;100152.25;5041104;28;20132;-85
2023/11/07 07:58:35;;;;;;;2.22;0.40;;;;;;;10.49;90.54;100146.09;5042349;28;20143;-78
2023/11/07 08:01:06;;;;;;;2.65;0.50;;;;;;;10.50;90.35;100146.97;5025629;28;20047;-81
2023/11/07 08:03:33;;;;;;;0.88;0.40;;;;;;;10.47;90.28;100149.63;5016175;28;20106;-78
2023/11/07 08:06:00;;;;;;;1.27;0.55;;;;;;;10.41;89.44;100145.38;5041839;28;20499;-79
2023/11/07 08:08:27;;;;;;;2.38;0.52;;;;;;;10.39;89.47;100142.78;5037331;28;20041;-78
2023/11/07 08:10:57;;;;;;;0.43;0.40;;;;;;;10.50;89.29;100139.97;5021254;28;20057;-79
2023/11/07 08:13:25;;;;;;;2.03;0.60;;;;;;;10.56;88.59;100139.03;5039030;28;20049;-79
2023/11/07 08:15:53;;;;;;;1.55;0.40;;;;;;;10.72;88.40;100131.75;5040814;28;20109;-78
2023/11/07 08:18:20;;;;;;;1.88;0.55;;;;;;;10.62;88.10;100143.28;5043805;28;20056;-79
2023/11/07 08:20:50;;;;;;;1.80;0.60;;;;;;;10.76;87.77;100139.53;5023052;28;20418;-79
2023/11/07 08:23:19;;;;;;;1.88;0.55;;;;;;;10.78;87.51;100143.88;5029715;28;20478;-78
2023/11/07 08:25:47;;;;;;;1.75;0.40;;;;;;;10.68;87.65;100149.28;5023636;28;20148;-79
2023/11/07 08:28:14;;;;;;;3.45;0.30;;;;;;;10.61;88.29;100152.88;5038019;28;20040;-80
2023/11/07 08:30:43;;;;;;;4.97;0.43;;;;;;;10.76;88.00;100154.38;5037773;28;20099;-79
2023/11/07 08:33:12;;;;;;;2.45;0.40;;;;;;;10.80;88.01;100156.03;5034586;28;20045;-78
2023/11/07 08:35:39;;;;;;;1.27;0.73;;;;;;;10.88;87.15;100158.53;5038470;28;20049;-77
2023/11/07 08:38:06;;;;;;;2.00;0.50;;;;;;;11.06;86.21;100160.78;5043300;28;20088;-78
2023/11/07 08:40:34;;;;;;;1.85;0.40;;;;;;;11.11;85.50;100157.22;5040604;28;20046;-77
2023/11/07 08:43:04;;;;;;;1.30;0.50;;;;;;;11.15;85.54;100162.38;5041892;28;20493;-76
2023/11/07 08:45:32;;;;;;;4.00;0.77;;;;;;;11.15;85.20;100162.38;5037090;28;20125;-78
2023/11/07 08:47:59;;;;;;;2.35;0.40;;;;;;;11.13;85.60;100168.53;5032139;28;20042;-78
2023/11/07 08:50:25;;;;;;;2.05;0.55;;;;;;;11.13;85.78;100169.41;5045808;28;20121;-81
2023/11/07 08:52:52;;;;;;;2.40;0.55;;;;;;;11.12;85.70;100166.81;5040453;28;20034;-80
2023/11/07 08:55:21;;;;;;;2.30;0.50;;;;;;;11.27;85.83;100163.91;5040127;28;20045;-78
2023/11/07 08:57:49;;;;;;;1.40;0.40;;;;;;;11.37;85.26;100165.44;5026093;28;20045;-78
2023/11/07 09:00:21;;;;;;;1.13;0.40;;;;;;;11.36;83.79;100157.63;5042643;28;20076;-78
2023/11/07 09:02:51;;;;;;;2.67;0.35;;;;;;;11.39;83.67;100157.53;5038676;28;20055;-77
2023/11/07 09:05:18;;;;;;;1.13;0.50;;;;;;;11.19;83.58;100165.81;5025518;28;20098;-78
2023/11/07 09:07:45;;;;;;;3.72;1.30;;;;;;;11.29;83.37;100162.13;5043118;28;20072;-79
2023/11/07 09:10:12;;;;;;;2.03;0.30;;;;;;;11.21;83.42;100159.66;5035481;28;20040;-79
2023/11/07 09:12:41;;;;;;;2.10;0.63;;;;;;;11.07;83.91;100159.91;5038065;28;20053;-80
2023/11/07 09:15:12;;;;;;;4.47;0.55;;;;;;;11.15;84.23;100172.88;5043615;28;20045;-79
2023/11/07 09:17:43;;;;;;;2.75;0.60;;;;;;;11.16;83.59;100173.72;5037877;28;20124;-79
2023/11/07 09:20:13;;;;;;;1.33;0.43;;;;;;;11.19;83.16;100176.28;5037685;28;20080;-78
2023/11/07 09:22:41;;;;;;;3.83;0.50;;;;;;;11.29;82.71;100182.22;5044317;28;20052;-80
2023/11/07 09:25:11;;;;;;;3.22;0.65;;;;;;;11.36;82.70;100181.22;5026940;28;20045;-79
2023/11/07 09:27:44;;;;;;;0.57;0.43;;;;;;;11.46;82.41;100177.50;5021745;28;20049;-79
2023/11/07 09:30:14;;;;;;;1.42;0.50;;;;;;;11.50;82.49;100186.16;5033347;28;20049;-81
2023/11/07 09:32:48;;;;;;;2.40;0.38;;;;;;;11.68;81.41;100188.41;5047535;28;20076;-81
2023/11/07 09:35:15;;;;;;;1.20;0.35;;;;;;;11.72;80.81;100191.81;5040635;28;20649;-79
2023/11/07 09:37:41;;;;;;;1.60;0.35;;;;;;;11.65;81.56;100201.56;5038808;28;20562;-78
2023/11/07 09:40:13;;;;;;;1.80;0.40;;;;;;;11.70;81.11;100204.13;5019565;28;20155;-77
2023/11/07 09:42:44;;;;;;;0.40;0.10;;;;;;;11.79;80.85;100201.28;5037987;28;20136;-83
2023/11/07 09:45:18;;;;;;;0.85;0.30;;;;;;;11.71;81.21;100209.31;5041089;28;20059;-78
2023/11/07 09:47:50;;;;;;;1.48;0.60;;;;;;;11.77;80.80;100216.19;5049032;28;20045;-79
2023/11/07 09:50:23;;;;;;;3.33;0.30;;;;;;;12.00;80.74;100201.75;5039975;28;20553;-77
2023/11/07 09:52:54;;;;;;;0.33;0.30;;;;;;;12.01;80.39;100203.50;5041492;28;20520;-80
2023/11/07 09:55:21;;;;;;;0.82;0.22;;;;;;;12.04;79.45;100201.63;5041186;28;20300;-78
2023/11/07 09:58:07;;;;;;;0.98;0.22;;;;;;;11.91;78.54;100203.66;5043421;28;20051;-80
2023/11/07 10:00:39;;;;;;;1.42;0.60;;;;;;;12.07;78.37;100196.34;5041953;28;20114;-78
2023/11/07 10:03:07;;;;;;;1.45;0.30;;;;;;;11.95;77.75;100203.59;5036925;28;20081;-84
2023/11/07 10:05:38;;;;;;;3.22;0.68;;;;;;;12.14;76.88;100202.31;5037127;28;20116;-79
2023/11/07 10:08:06;;;;;;;3.90;0.60;;;;;;;12.06;76.35;100199.84;5041494;28;20454;-79
2023/11/07 10:10:34;;;;;;;1.23;0.40;;;;;;;12.26;75.43;100195.06;5009350;28;20442;-81
2023/11/07 10:13:12;;;;;;;0.88;0.45;;;;;;;12.06;75.99;100180.66;5040362;28;20064;-80
2023/11/07 10:15:40;;;;;;;1.27;0.20;;;;;;;11.96;75.97;100193.09;5040529;28;20123;-77
2023/11/07 10:18:10;;;;;;;1.75;0.32;;;;;;;11.91;75.91;100193.19;5037178;28;20029;-87
2023/11/07 10:20:59;;;;;;;3.17;0.22;;;;;;;11.87;76.25;100195.88;5039749;28;20049;-79
2023/11/07 10:23:35;;;;;;;0.60;0.38;;;;;;;11.78;76.26;100193.47;5024537;28;20049;-80
2023/11/07 10:26:13;;;;;;;2.42;0.60;;;;;;;11.84;76.67;100185.47;5038880;28;20045;-80
2023/11/07 10:28:40;;;;;;;0.70;0.35;;;;;;;11.84;77.11;100185.47;5041873;28;20045;-77
2023/11/07 10:31:20;;;;;;;1.13;0.63;;;;;;;11.88;76.96;100190.59;5041888;28;20075;-87
2023/11/07 10:33:47;;;;;;;1.42;0.45;;;;;;;11.93;76.48;100187.88;5029871;28;20042;-78
2023/11/07 10:36:14;;;;;;;1.45;0.40;;;;;;;12.07;76.04;100192.84;5038907;28;20332;-79
2023/11/07 10:38:41;;;;;;;0.43;0.43;;;;;;;12.05;76.10;100187.63;5026627;28;20099;-81
2023/11/07 10:41:08;;;;;;;2.50;0.30;;;;;;;12.04;76.06;100192.91;5026213;28;20036;-84
2023/11/07 10:43:41;;;;;;;0.93;0.30;;;;;;;11.93;76.08;100198.38;5042828;28;20041;-82
2023/11/07 10:46:10;;;;;;;0.80;0.50;;;;;;;12.07;76.22;100193.72;5038953;28;20408;-82
2023/11/07 10:48:41;;;;;;;1.88;0.30;;;;;;;12.05;75.35;100195.50;5043210;28;20053;-79
2023/11/07 10:51:13;;;;;;;0.17;0.17;;;;;;;11.88;75.96;100189.75;5037008;28;20068;-88
2023/11/07 10:53:43;;;;;;;0.80;0.43;;;;;;;11.87;75.87;100193.25;5044954;28;21363;-79
2023/11/07 10:56:20;;;;;;;1.13;0.30;;;;;;;11.84;76.15;100195.97;5023083;28;20157;-79
2023/11/07 10:59:02;;;;;;;2.63;0.47;;;;;;;11.75;76.36;100187.38;5021773;28;20117;-80
2023/11/07 11:01:31;;;;;;;1.23;0.30;;;;;;;11.81;77.20;100193.38;5038685;28;20042;-83
2023/11/07 11:04:01;;;;;;;2.83;0.50;;;;;;;11.87;76.97;100188.88;5048990;28;20044;-81
2023/11/07 11:06:32;;;;;;;1.65;1.30;;;;;;;12.05;76.55;100189.41;5041401;28;20046;-78
2023/11/07 11:09:27;;;;;;;2.15;0.35;;;;;;;11.99;75.82;100186.91;5039035;28;20041;-83
2023/11/07 11:11:57;;;;;;;0.57;0.30;;;;;;;11.90;75.98;100178.31;5030640;28;20622;-83
2023/11/07 11:14:25;;;;;;;1.55;0.30;;;;;;;11.88;75.94;100179.25;5036125;28;20101;-80
2023/11/07 11:16:57;;;;;;;3.70;0.88;;;;;;;11.71;76.53;100185.72;5039029;28;20049;-82
2023/11/07 11:19:33;;;;;;;1.63;0.22;;;;;;;11.70;76.92;100180.50;5042472;28;20052;-82
2023/11/07 11:22:17;;;;;;;2.17;0.50;;;;;;;11.75;76.96;100182.13;5040974;28;20056;-79
2023/11/07 11:25:17;;;;;;;0.75;0.40;;;;;;;11.74;76.29;100182.16;5044114;28;20562;-79
2023/11/07 11:27:52;;;;;;;0.93;0.40;;;;;;;11.72;76.81;100184.81;5041963;28;20078;-77
2023/11/07 11:30:28;;;;;;;2.88;0.20;;;;;;;11.75;77.25;100181.28;5042870;28;20060;-77
2023/11/07 11:33:14;;;;;;;0.45;0.45;;;;;;;11.72;77.65;100176.97;5041357;28;20080;-78
2023/11/07 11:35:44;;;;;;;0.98;0.30;;;;;;;11.60;77.57;100171.97;5059922;28;20104;-80